Time;durP1;ratioP1;P1;durP2;ratioP2;P2;SDS_P1;SDS_P2;PMS_P1;PMS_P2;Temp;Humidity;BMP_temperature;BMP_pressure;BME280_temperature;BME280_humidity;BME280_pressure;Samples;Min_cycle;Max_cycle;Signal;HPM_P1;HPM_P2
2022/07/06 00:00:04;;;;;;;9.07;6.17;;;;;;;23.90;56.85;100296.70;1680316;84;20973;-71
2022/07/06 00:02:31;;;;;;;7.37;5.57;;;;;;;23.88;57.27;100295.68;1681848;84;20981;-70
2022/07/06 00:05:02;;;;;;;9.90;6.33;;;;;;;23.87;57.55;100294.11;1667669;84;21159;-70
2022/07/06 00:07:30;;;;;;;;;;;;;;;23.85;57.75;100291.72;1659699;84;21036;-69
2022/07/06 00:09:58;;;;;;;8.77;6.30;;;;;;;23.83;57.93;100290.51;1652187;84;20197;-68
2022/07/06 00:12:24;;;;;;;8.27;5.97;;;;;;;23.79;57.95;100289.06;1657002;84;21606;-69
2022/07/06 00:14:52;;;;;;;8.97;6.10;;;;;;;23.75;58.06;100284.07;1671300;84;21193;-70
2022/07/06 00:17:26;;;;;;;7.73;6.13;;;;;;;23.72;58.07;100286.14;1679808;84;21212;-70
2022/07/06 00:19:53;;;;;;;10.03;6.67;;;;;;;23.69;58.11;100275.96;1672177;85;20967;-69
2022/07/06 00:22:21;;;;;;;9.27;6.17;;;;;;;23.67;58.14;100276.05;1668334;84;21043;-69
2022/07/06 00:24:51;;;;;;;8.27;6.00;;;;;;;23.62;58.46;100280.61;1671255;84;21098;-69
2022/07/06 00:27:18;;;;;;;7.83;6.00;;;;;;;23.61;58.57;100279.61;1671983;84;21022;-69
2022/07/06 00:29:44;;;;;;;9.13;5.57;;;;;;;23.59;58.51;100279.97;1644697;85;21205;-70
2022/07/06 00:32:12;;;;;;;7.10;5.83;;;;;;;23.59;58.53;100277.80;1660571;84;21000;-69
2022/07/06 00:34:42;;;;;;;8.27;6.27;;;;;;;23.46;58.78;100284.47;1653822;84;21048;-70
2022/07/06 00:37:10;;;;;;;6.83;6.13;;;;;;;23.39;59.13;100280.99;1653793;84;21028;-69
2022/07/06 00:39:36;;;;;;;6.30;5.67;;;;;;;23.35;59.35;100284.20;1655244;84;22614;-70
2022/07/06 00:42:05;;;;;;;8.47;5.93;;;;;;;23.32;59.46;100287.63;1656112;84;20959;-69
2022/07/06 00:44:33;;;;;;;6.80;5.40;;;;;;;23.31;59.58;100286.84;1669602;84;21133;-70
2022/07/06 00:47:00;;;;;;;7.03;6.10;;;;;;;23.27;59.87;100288.69;1655083;84;21091;-70
2022/07/06 00:52:18;;;;;;;7.57;6.43;;;;;;;23.21;60.46;100287.92;1661269;84;21080;-70
2022/07/06 00:54:52;;;;;;;8.00;6.13;;;;;;;23.17;60.69;100281.02;1680725;84;21595;-69
2022/07/06 00:57:20;;;;;;;6.90;6.20;;;;;;;23.16;60.73;100286.23;1673390;84;21011;-69
2022/07/06 00:59:54;;;;;;;8.13;6.23;;;;;;;23.32;60.13;100290.35;1654250;84;21050;-69
2022/07/06 01:02:27;;;;;;;6.73;5.90;;;;;;;23.20;60.35;100284.95;1666039;84;21065;-69
2022/07/06 01:04:54;;;;;;;7.00;6.00;;;;;;;23.10;60.65;100283.53;1630761;86;21427;-69
2022/07/06 01:07:20;;;;;;;9.00;6.67;;;;;;;23.21;60.59;100281.91;1665139;84;21764;-69
2022/07/06 01:09:47;;;;;;;8.40;6.17;;;;;;;23.28;60.39;100283.45;1659076;84;21021;-70
2022/07/06 01:12:13;;;;;;;7.63;5.67;;;;;;;23.20;60.84;100283.05;1655646;84;21090;-70
2022/07/06 01:14:40;;;;;;;8.93;6.47;;;;;;;23.08;61.45;100288.55;1654054;84;20995;-70
2022/07/06 01:17:10;;;;;;;8.90;6.00;;;;;;;23.02;61.65;100289.36;1651199;84;21117;-68
2022/07/06 01:19:37;;;;;;;7.53;6.20;;;;;;;23.00;61.77;100288.12;1654002;84;21461;-68
2022/07/06 01:22:05;;;;;;;8.17;6.70;;;;;;;23.00;61.91;100286.21;1654898;84;20974;-69
2022/07/06 01:24:33;;;;;;;7.87;7.07;;;;;;;22.99;62.09;100287.33;1656188;84;21628;-69
2022/07/06 01:26:59;;;;;;;7.27;6.00;;;;;;;22.99;62.10;100285.97;1655671;84;21032;-69
2022/07/06 01:29:26;;;;;;;7.40;6.07;;;;;;;22.98;62.04;100289.84;1658025;84;21158;-69
2022/07/06 01:31:53;;;;;;;7.17;6.23;;;;;;;22.97;62.02;100290.98;1653740;84;21258;-68
2022/07/06 01:34:19;;;;;;;7.40;6.03;;;;;;;22.96;62.18;100291.32;1655353;84;20912;-69
2022/07/06 01:36:48;;;;;;;7.70;6.13;;;;;;;22.95;62.36;100290.53;1654496;84;21060;-69
2022/07/06 01:39:15;;;;;;;10.13;6.37;;;;;;;22.93;62.53;100286.81;1653719;84;21060;-69
2022/07/06 01:41:42;;;;;;;9.97;6.73;;;;;;;22.92;62.66;100283.02;1654093;84;21055;-69
2022/07/06 01:44:09;;;;;;;7.53;6.10;;;;;;;22.91;62.88;100284.96;1653982;84;21505;-69
2022/07/06 01:46:37;;;;;;;8.33;6.50;;;;;;;22.89;63.01;100283.14;1654259;84;21136;-69
2022/07/06 01:49:05;;;;;;;7.83;6.43;;;;;;;23.08;62.59;100281.74;1654541;84;21073;-70
2022/07/06 01:51:32;;;;;;;7.40;6.23;;;;;;;23.09;62.59;100282.74;1652905;84;21185;-69
2022/07/06 01:54:01;;;;;;;8.20;6.13;;;;;;;23.08;62.69;100278.44;1658976;84;21043;-69
2022/07/06 01:56:29;;;;;;;9.50;7.03;;;;;;;23.06;62.76;100276.62;1680656;84;21265;-70
2022/07/06 01:58:57;;;;;;;9.50;6.10;;;;;;;23.06;62.98;100288.09;1670377;84;21010;-70
2022/07/06 02:01:24;;;;;;;6.60;5.90;;;;;;;23.05;62.99;100277.77;1655109;84;21127;-70
2022/07/06 02:03:50;;;;;;;8.67;6.90;;;;;;;22.96;63.28;100285.30;1653498;84;21852;-69
2022/07/06 02:06:19;;;;;;;7.80;6.70;;;;;;;22.82;63.86;100283.52;1655984;84;21103;-69
2022/07/06 02:08:47;;;;;;;8.27;6.83;;;;;;;22.79;64.10;100285.57;1653196;84;21376;-70
2022/07/06 02:11:14;;;;;;;7.60;6.63;;;;;;;22.70;64.11;100283.80;1655512;84;21075;-69
2022/07/06 02:13:41;;;;;;;7.83;6.83;;;;;;;22.68;64.39;100282.55;1627546;84;21059;-69
2022/07/06 02:16:10;;;;;;;7.53;6.27;;;;;;;22.67;64.67;100276.31;1655338;84;21054;-69
2022/07/06 02:18:37;;;;;;;8.00;6.50;;;;;;;22.69;64.86;100278.68;1653804;84;21030;-70
2022/07/06 02:21:05;;;;;;;9.47;6.93;;;;;;;22.70;65.01;100281.62;1672334;84;21127;-70
2022/07/06 02:23:31;;;;;;;7.87;6.70;;;;;;;22.69;65.16;100284.91;1661071;84;20966;-69
2022/07/06 02:25:58;;;;;;;7.67;6.07;;;;;;;22.71;65.26;100284.02;1653874;84;21556;-70
2022/07/06 02:28:25;;;;;;;7.93;6.80;;;;;;;22.73;65.25;100278.78;1653708;84;21513;-69
2022/07/06 02:30:52;;;;;;;6.90;6.20;;;;;;;22.76;65.21;100280.23;1654508;84;21583;-70
2022/07/06 02:33:21;;;;;;;6.90;6.20;;;;;;;22.79;65.37;100274.11;1653775;84;21148;-69
2022/07/06 02:35:47;;;;;;;7.37;6.57;;;;;;;22.78;65.66;100275.25;1653786;84;22370;-70
2022/07/06 02:38:14;;;;;;;8.17;6.40;;;;;;;22.76;65.83;100276.73;1654418;84;21046;-70
2022/07/06 02:40:42;;;;;;;7.10;6.37;;;;;;;22.78;66.01;100271.17;1655181;84;21086;-69
2022/07/06 02:43:10;;;;;;;9.37;6.47;;;;;;;22.84;65.97;100269.00;1654530;84;21077;-70
2022/07/06 02:45:37;;;;;;;7.13;6.37;;;;;;;22.87;65.96;100273.76;1657934;84;21208;-70
2022/07/06 02:48:04;;;;;;;7.17;6.40;;;;;;;22.83;66.10;100274.99;1655636;84;21113;-69
2022/07/06 02:50:31;;;;;;;8.13;6.40;;;;;;;22.87;66.18;100271.82;1655501;84;21506;-69
2022/07/06 02:52:58;;;;;;;7.70;6.77;;;;;;;22.95;66.16;100272.83;1655704;84;21094;-69
2022/07/06 02:55:25;;;;;;;7.53;6.73;;;;;;;23.02;66.22;100273.59;1655716;84;21097;-69
2022/07/06 02:57:52;;;;;;;7.43;6.73;;;;;;;23.05;66.29;100267.45;1653880;84;21121;-69
2022/07/06 03:00:18;;;;;;;8.00;6.93;;;;;;;23.10;66.28;100272.09;1664207;84;21001;-69
2022/07/06 03:02:45;;;;;;;9.57;7.50;;;;;;;23.17;66.25;100269.55;1665612;84;21062;-70
2022/07/06 03:05:13;;;;;;;8.17;7.27;;;;;;;23.24;66.18;100266.80;1655097;84;21043;-70
2022/07/06 03:07:39;;;;;;;8.63;7.50;;;;;;;23.29;66.11;100266.52;1656785;84;21086;-70
2022/07/06 03:10:07;;;;;;;7.97;7.03;;;;;;;23.35;65.89;100265.13;1668932;84;21888;-69
2022/07/06 03:12:35;;;;;;;8.90;6.87;;;;;;;23.50;65.75;100260.84;1680005;84;20957;-70
2022/07/06 03:15:04;;;;;;;8.03;6.87;;;;;;;23.51;65.71;100265.14;1679524;84;21111;-70
2022/07/06 03:17:31;;;;;;;8.77;6.80;;;;;;;23.75;65.09;100269.08;1632786;85;21129;-70
2022/07/06 03:19:58;;;;;;;10.30;7.80;;;;;;;23.86;64.70;100270.14;1682605;84;21160;-71
2022/07/06 03:22:25;;;;;;;9.80;7.60;;;;;;;23.95;64.47;100273.23;1681207;84;22076;-71
2022/07/06 03:24:53;;;;;;;11.03;7.87;;;;;;;24.03;64.50;100272.27;1671706;84;21443;-72
2022/07/06 03:27:20;;;;;;;12.37;8.43;;;;;;;24.12;64.20;100270.15;1682615;84;20973;-71
2022/07/06 03:29:46;;;;;;;9.23;7.20;;;;;;;24.16;64.11;100269.65;1682293;84;21025;-71
2022/07/06 03:32:13;;;;;;;9.73;7.20;;;;;;;24.20;63.85;100273.82;1681728;84;21071;-71
2022/07/06 03:34:39;;;;;;;9.90;7.07;;;;;;;24.24;63.60;100261.83;1663371;84;21113;-72
2022/07/06 03:37:07;;;;;;;10.63;7.30;;;;;;;24.32;63.21;100262.80;1682144;84;21076;-71
2022/07/06 03:39:35;;;;;;;7.60;6.80;;;;;;;24.39;63.02;100268.98;1681167;84;21053;-72
2022/07/06 03:42:03;;;;;;;7.57;6.37;;;;;;;24.50;62.64;100268.07;1659744;84;21015;-70
2022/07/06 03:44:31;;;;;;;7.37;6.63;;;;;;;24.65;62.22;100271.91;1680959;84;20981;-71
2022/07/06 03:46:58;;;;;;;7.13;6.33;;;;;;;24.75;61.55;100269.96;1681826;84;21253;-70
2022/07/06 03:49:26;;;;;;;7.93;6.77;;;;;;;24.80;60.97;100271.02;1676370;84;21104;-71
2022/07/06 03:51:54;;;;;;;8.80;6.40;;;;;;;24.93;60.58;100272.24;1650437;84;20985;-70
2022/07/06 03:54:22;;;;;;;7.57;6.57;;;;;;;25.07;60.31;100266.25;1680348;84;21222;-70
2022/07/06 03:56:48;;;;;;;7.57;6.77;;;;;;;25.23;59.82;100263.66;1683332;84;21543;-69
2022/07/06 03:59:15;;;;;;;7.80;6.53;;;;;;;25.38;59.07;100265.30;1681835;84;21851;-69
2022/07/06 04:01:42;;;;;;;7.70;6.57;;;;;;;25.55;58.17;100266.75;1663325;84;20973;-69
2022/07/06 04:04:11;;;;;;;8.50;7.00;;;;;;;25.74;57.40;100264.73;1681393;84;21055;-69
2022/07/06 04:06:39;;;;;;;8.00;6.33;;;;;;;25.94;56.62;100266.03;1678768;84;21057;-69
2022/07/06 04:09:06;;;;;;;7.93;6.57;;;;;;;26.15;56.04;100262.81;1674356;84;21056;-69
2022/07/06 04:11:35;;;;;;;7.60;6.20;;;;;;;26.35;55.20;100259.36;1681512;84;21053;-70
2022/07/06 04:14:03;;;;;;;9.43;6.97;;;;;;;26.56;54.63;100259.69;1662921;84;21516;-70
2022/07/06 04:16:31;;;;;;;8.77;7.03;;;;;;;26.76;53.90;100258.94;1655546;84;21474;-70
2022/07/06 04:18:58;;;;;;;8.10;6.87;;;;;;;26.93;53.20;100254.82;1654858;84;22261;-70
2022/07/06 04:21:25;;;;;;;8.73;7.10;;;;;;;26.94;52.88;100259.72;1656442;84;20986;-70
2022/07/06 04:23:53;;;;;;;7.10;6.40;;;;;;;26.95;52.99;100255.80;1655307;84;21154;-69
2022/07/06 04:26:20;;;;;;;8.17;6.27;;;;;;;27.01;52.67;100254.30;1655933;84;21408;-68
2022/07/06 04:28:49;;;;;;;7.87;6.80;;;;;;;27.07;52.88;100251.44;1653797;84;21180;-69
2022/07/06 04:31:16;;;;;;;9.07;6.77;;;;;;;27.15;52.49;100249.02;1623064;84;21140;-69
2022/07/06 04:33:44;;;;;;;8.27;6.47;;;;;;;27.08;52.37;100248.33;1654758;84;21015;-68
2022/07/06 04:36:11;;;;;;;7.17;6.43;;;;;;;27.11;51.96;100242.09;1656348;84;21511;-69
2022/07/06 04:38:39;;;;;;;8.13;5.97;;;;;;;27.17;51.71;100239.03;1654415;84;21704;-69
2022/07/06 04:41:06;;;;;;;7.87;6.33;;;;;;;27.24;51.98;100232.23;1657274;84;21468;-69
2022/07/06 04:43:33;;;;;;;10.87;6.67;;;;;;;27.26;51.04;100239.52;1657158;84;21129;-69
2022/07/06 04:46:01;;;;;;;7.47;6.67;;;;;;;27.26;51.20;100234.81;1658206;84;21165;-69
2022/07/06 04:48:28;;;;;;;7.37;6.50;;;;;;;27.26;50.48;100232.66;1656817;84;21677;-69
2022/07/06 04:50:55;;;;;;;7.93;5.87;;;;;;;27.24;50.42;100229.49;1653502;84;21133;-70
2022/07/06 04:53:23;;;;;;;7.07;6.03;;;;;;;27.34;50.41;100233.72;1654380;84;21073;-68
2022/07/06 04:55:50;;;;;;;7.00;6.30;;;;;;;27.64;50.02;100230.60;1652975;84;21143;-70
2022/07/06 04:58:17;;;;;;;7.13;6.40;;;;;;;27.81;49.92;100224.50;1653830;84;21069;-70
2022/07/06 05:00:44;;;;;;;7.03;5.70;;;;;;;27.94;49.64;100224.39;1653406;84;21603;-69
2022/07/06 05:03:11;;;;;;;7.23;6.17;;;;;;;28.08;49.04;100223.67;1653680;84;20987;-68
2022/07/06 05:05:38;;;;;;;6.73;5.90;;;;;;;28.21;48.41;100219.44;1653718;84;21045;-69
2022/07/06 05:08:06;;;;;;;6.40;5.50;;;;;;;28.34;47.69;100219.10;1647467;84;21402;-69
2022/07/06 05:10:33;;;;;;;7.80;5.47;;;;;;;28.45;47.48;100218.58;1654328;84;21095;-69
2022/07/06 05:13:00;;;;;;;6.07;5.23;;;;;;;28.50;46.39;100220.97;1653860;84;21262;-69
2022/07/06 05:15:28;;;;;;;6.83;5.27;;;;;;;28.54;46.19;100219.02;1653235;84;21120;-70
2022/07/06 05:17:55;;;;;;;6.60;5.30;;;;;;;28.61;46.08;100210.00;1653812;84;21165;-69
2022/07/06 05:20:21;;;;;;;6.30;5.30;;;;;;;28.70;45.43;100213.96;1654109;84;21084;-70
2022/07/06 05:22:49;;;;;;;6.73;5.20;;;;;;;28.76;45.42;100214.38;1654891;84;21091;-69
2022/07/06 05:25:18;;;;;;;6.67;5.13;;;;;;;28.80;45.43;100208.30;1654164;84;21552;-69
2022/07/06 05:27:45;;;;;;;6.83;5.07;;;;;;;28.88;45.37;100202.21;1652455;84;21052;-68
2022/07/06 05:30:12;;;;;;;7.03;5.27;;;;;;;28.98;45.50;100206.34;1654832;84;21502;-69
2022/07/06 05:32:39;;;;;;;5.07;4.57;;;;;;;29.07;45.42;100200.50;1652905;84;21081;-69
2022/07/06 05:35:08;;;;;;;5.40;4.90;;;;;;;29.15;44.98;100199.91;1655902;84;21033;-69
2022/07/06 05:37:35;;;;;;;6.37;4.90;;;;;;;29.27;44.95;100198.75;1671168;84;21487;-69
2022/07/06 05:40:03;;;;;;;5.37;4.77;;;;;;;29.34;44.32;100197.37;1657932;84;20968;-70
2022/07/06 05:42:30;;;;;;;4.77;4.23;;;;;;;29.45;44.02;100195.38;1653446;84;21026;-71
2022/07/06 05:44:58;;;;;;;5.53;4.80;;;;;;;29.55;43.53;100186.92;1653287;84;21036;-70
2022/07/06 05:50:14;;;;;;;5.37;4.80;;;;;;;29.76;42.93;100186.16;1654466;84;21741;-69
2022/07/06 05:52:45;;;;;;;5.83;4.60;;;;;;;29.87;42.58;100188.28;1659634;84;21075;-69
2022/07/06 05:55:15;;;;;;;5.90;5.10;;;;;;;29.96;42.14;100187.28;1648044;86;20972;-68
2022/07/06 05:57:43;;;;;;;6.50;4.50;;;;;;;30.00;42.01;100179.78;1656038;84;21103;-70
2022/07/06 06:00:13;;;;;;;4.97;4.47;;;;;;;30.09;42.12;100176.62;1623844;84;21073;-70
2022/07/06 06:02:52;;;;;;;5.53;4.47;;;;;;;30.19;41.88;100177.20;1666914;84;21152;-70
2022/07/06 06:05:20;;;;;;;4.83;4.30;;;;;;;30.27;41.68;100169.67;1666345;84;21066;-69
2022/07/06 06:07:53;;;;;;;6.70;4.73;;;;;;;30.36;41.13;100162.55;1670814;84;21103;-69
2022/07/06 06:10:23;;;;;;;6.43;4.50;;;;;;;30.46;41.23;100158.16;1654466;84;21651;-68
2022/07/06 06:12:50;;;;;;;8.33;4.40;;;;;;;30.54;40.47;100157.55;1653068;84;21178;-70
2022/07/06 06:15:23;;;;;;;7.53;4.90;;;;;;;30.60;40.25;100158.10;1678871;84;22601;-70
2022/07/06 06:17:52;;;;;;;7.07;4.60;;;;;;;30.71;40.22;100160.78;1665197;84;21498;-70
2022/07/06 06:20:20;;;;;;;4.90;4.40;;;;;;;30.83;40.94;100163.10;1648048;84;21047;-69
2022/07/06 06:22:58;;;;;;;6.17;4.37;;;;;;;30.98;39.99;100161.01;1657348;84;21074;-70
2022/07/06 06:25:38;;;;;;;5.70;4.47;;;;;;;31.06;38.62;100165.30;1652611;84;21090;-70
2022/07/06 06:28:11;;;;;;;5.03;4.10;;;;;;;31.07;38.49;100171.59;1631638;87;21122;-69
2022/07/06 06:30:48;;;;;;;6.05;4.60;;;;;;;31.01;38.36;100178.12;1679524;84;21091;-69
2022/07/06 06:33:26;;;;;;;6.13;4.27;;;;;;;30.91;38.87;100172.70;1664388;84;21126;-70
2022/07/06 06:35:56;;;;;;;5.03;4.10;;;;;;;30.91;39.93;100171.32;1657329;84;21094;-70
2022/07/06 06:38:29;;;;;;;5.43;4.20;;;;;;;30.98;38.85;100164.37;1662189;84;21111;-69
2022/07/06 06:40:55;;;;;;;5.70;4.50;;;;;;;31.07;39.46;100164.09;1657778;86;21993;-69
2022/07/06 06:43:22;;;;;;;5.80;4.30;;;;;;;31.14;39.26;100155.58;1656582;86;21566;-69
2022/07/06 06:46:00;;;;;;;4.43;3.97;;;;;;;31.23;38.79;100157.28;1639762;86;21028;-69
2022/07/06 06:48:33;;;;;;;6.17;4.10;;;;;;;31.34;38.33;100155.83;1643035;86;20980;-69
2022/07/06 06:51:12;;;;;;;6.10;3.90;;;;;;;31.44;37.71;100148.04;1655397;84;21132;-68
2022/07/06 06:53:39;;;;;;;6.60;4.00;;;;;;;31.52;37.91;100148.95;1653692;84;21166;-69
2022/07/06 06:56:06;;;;;;;4.30;3.90;;;;;;;31.63;37.95;100146.06;1653966;84;21065;-68
2022/07/06 06:58:33;;;;;;;4.40;3.80;;;;;;;31.74;37.31;100143.96;1656811;84;21123;-69
2022/07/06 07:01:00;;;;;;;6.40;4.10;;;;;;;31.82;37.41;100146.06;1654414;84;21113;-70
2022/07/06 07:03:26;;;;;;;5.33;3.73;;;;;;;31.91;36.64;100139.45;1653462;84;21106;-70
2022/07/06 07:05:53;;;;;;;6.40;3.90;;;;;;;31.98;37.00;100136.63;1655105;84;22156;-70
2022/07/06 07:08:19;;;;;;;5.53;3.87;;;;;;;32.10;37.03;100135.89;1654985;84;21093;-70
2022/07/06 07:10:46;;;;;;;8.05;3.83;;;;;;;32.17;37.31;100139.94;1654144;84;21028;-70
2022/07/06 07:13:15;;;;;;;4.40;3.80;;;;;;;32.25;36.96;100138.66;1657063;84;21501;-71
2022/07/06 07:15:42;;;;;;;6.63;3.70;;;;;;;32.34;36.88;100140.28;1653756;84;21162;-70
2022/07/06 07:18:09;;;;;;;5.97;3.90;;;;;;;32.41;36.58;100131.92;1657405;84;21156;-70
2022/07/06 07:20:35;;;;;;;4.78;3.83;;;;;;;32.53;36.24;100124.27;1658832;86;20933;-70
2022/07/06 07:23:02;;;;;;;5.17;3.62;;;;;;;32.63;35.64;100124.10;1658677;84;21065;-70
2022/07/06 07:25:29;;;;;;;7.45;3.80;;;;;;;32.68;34.79;100124.25;1654698;84;22722;-71
2022/07/06 07:27:56;;;;;;;5.47;3.85;;;;;;;32.74;34.77;100121.77;1654171;84;21045;-70
2022/07/06 07:30:22;;;;;;;5.67;3.98;;;;;;;32.77;34.79;100118.95;1654260;84;21236;-70
2022/07/06 07:32:49;;;;;;;5.87;3.83;;;;;;;32.83;35.16;100125.57;1653253;84;21379;-69
2022/07/06 07:35:15;;;;;;;7.00;3.90;;;;;;;32.93;34.63;100122.45;1651191;84;20982;-71
2022/07/06 07:37:42;;;;;;;5.80;3.80;;;;;;;33.03;34.47;100122.91;1655936;84;21074;-71
2022/07/06 07:40:09;;;;;;;6.17;3.83;;;;;;;33.14;34.14;100128.27;1654297;84;21030;-70
2022/07/06 07:42:37;;;;;;;5.53;3.60;;;;;;;33.23;34.04;100123.55;1655205;84;21134;-68
2022/07/06 07:45:05;;;;;;;5.95;3.60;;;;;;;33.35;33.81;100123.73;1655895;84;21050;-70
2022/07/06 07:47:32;;;;;;;5.55;3.60;;;;;;;33.43;32.76;100123.59;1649987;84;21066;-70
2022/07/06 07:50:00;;;;;;;7.28;4.22;;;;;;;33.48;33.02;100121.73;1654785;84;21533;-70
2022/07/06 07:52:27;;;;;;;7.78;3.90;;;;;;;33.53;32.96;100119.29;1654321;84;21184;-70
2022/07/06 07:54:54;;;;;;;6.67;3.95;;;;;;;33.58;32.72;100123.54;1659401;84;21135;-69
2022/07/06 07:57:20;;;;;;;5.27;4.00;;;;;;;33.65;33.11;100117.08;1429586;84;10017157;-70
2022/07/06 07:59:47;;;;;;;7.20;4.00;;;;;;;33.72;32.50;100119.70;1660679;84;21403;-69
2022/07/06 08:02:13;;;;;;;4.83;3.72;;;;;;;33.79;32.33;100111.25;1657682;85;21066;-69
2022/07/06 08:04:40;;;;;;;8.50;4.08;;;;;;;33.85;32.42;100110.32;1651113;84;21140;-69
2022/07/06 08:07:06;;;;;;;6.42;4.05;;;;;;;33.94;32.15;100114.52;1654711;85;21090;-70
2022/07/06 08:09:33;;;;;;;5.67;3.62;;;;;;;34.05;32.15;100117.86;1655151;86;21123;-68
2022/07/06 08:12:00;;;;;;;4.92;3.40;;;;;;;34.14;30.89;100111.14;1655032;86;21212;-69
2022/07/06 08:14:27;;;;;;;4.03;3.50;;;;;;;34.19;31.17;100118.16;1651618;84;21053;-70
2022/07/06 08:16:53;;;;;;;4.60;3.42;;;;;;;34.23;30.84;100119.66;1646798;86;21589;-70
2022/07/06 08:19:21;;;;;;;4.85;3.33;;;;;;;34.25;30.59;100119.98;1630554;86;21015;-70
2022/07/06 08:21:47;;;;;;;4.08;3.33;;;;;;;34.30;31.25;100122.27;1656113;86;21639;-70
2022/07/06 08:24:14;;;;;;;4.47;3.40;;;;;;;34.37;31.37;100112.23;1657554;86;21137;-70
2022/07/06 08:26:41;;;;;;;4.65;3.20;;;;;;;34.42;30.82;100115.86;1643944;86;21169;-71
2022/07/06 08:29:07;;;;;;;4.20;3.25;;;;;;;34.48;30.99;100112.14;1649221;86;21078;-70
2022/07/06 08:31:35;;;;;;;3.50;3.10;;;;;;;34.57;30.14;100108.81;1656002;86;21038;-68
2022/07/06 08:34:02;;;;;;;4.42;3.12;;;;;;;34.59;29.91;100110.55;1654890;85;21032;-70
2022/07/06 08:36:28;;;;;;;5.30;3.12;;;;;;;34.60;29.78;100113.50;1654927;86;22079;-70
2022/07/06 08:38:55;;;;;;;4.47;3.50;;;;;;;34.61;30.13;100106.73;1648405;86;21596;-70
2022/07/06 08:41:24;;;;;;;4.72;3.52;;;;;;;34.70;30.50;100110.29;1646722;86;21018;-70
2022/07/06 08:43:52;;;;;;;4.97;3.35;;;;;;;34.76;30.70;100111.34;1650159;84;21085;-70
2022/07/06 08:46:20;;;;;;;4.42;3.45;;;;;;;34.84;30.67;100107.77;1655863;86;21558;-70
2022/07/06 08:48:46;;;;;;;3.77;3.10;;;;;;;34.92;30.50;100110.55;1659393;85;21607;-70
2022/07/06 08:51:13;;;;;;;5.05;3.37;;;;;;;35.02;30.00;100105.37;1626851;86;21086;-70
2022/07/06 08:53:42;;;;;;;5.85;3.45;;;;;;;35.12;29.97;100101.53;1655063;86;21586;-70
2022/07/06 08:56:09;;;;;;;4.58;3.33;;;;;;;35.21;30.61;100098.92;1657139;86;21094;-72
2022/07/06 08:58:36;;;;;;;5.83;3.47;;;;;;;35.30;30.75;100094.11;1651550;86;22328;-69
2022/07/06 09:01:02;;;;;;;6.58;3.80;;;;;;;35.38;30.11;100084.99;1648721;86;21629;-69
2022/07/06 09:03:30;;;;;;;5.67;3.58;;;;;;;35.46;29.78;100083.56;1661349;84;21582;-70
2022/07/06 09:06:01;;;;;;;4.42;3.52;;;;;;;35.51;29.35;100080.26;1655839;85;21051;-70
2022/07/06 09:08:28;;;;;;;6.00;3.98;;;;;;;35.54;29.20;100078.02;1640178;86;21015;-70
2022/07/06 09:10:55;;;;;;;4.42;3.15;;;;;;;35.58;28.76;100077.30;1668549;84;21101;-69
2022/07/06 09:13:22;;;;;;;4.87;3.55;;;;;;;35.61;28.84;100077.05;1656939;84;22080;-69
2022/07/06 09:15:49;;;;;;;4.92;3.50;;;;;;;35.59;28.67;100076.08;1656262;86;21016;-70
2022/07/06 09:18:15;;;;;;;5.05;3.33;;;;;;;35.56;28.87;100075.56;1647813;84;21558;-71
2022/07/06 09:20:42;;;;;;;3.77;3.22;;;;;;;35.63;29.27;100075.97;1656088;86;21055;-70
2022/07/06 09:23:09;;;;;;;3.67;3.08;;;;;;;35.75;29.02;100071.06;1658406;84;21060;-70
2022/07/06 09:25:36;;;;;;;4.12;3.37;;;;;;;35.86;28.06;100069.35;1652240;85;21166;-70
2022/07/06 09:28:05;;;;;;;4.53;3.15;;;;;;;35.93;28.22;100066.35;1654756;86;21044;-69
2022/07/06 09:30:32;;;;;;;4.55;3.35;;;;;;;36.07;27.99;100068.75;1655148;85;21039;-69
2022/07/06 09:32:58;;;;;;;5.28;4.00;;;;;;;36.07;27.99;100068.75;1655801;86;21056;-69
2022/07/06 09:35:37;;;;;;;3.70;3.30;;;;;;;36.13;27.77;100061.41;1665369;85;21110;-70
2022/07/06 09:38:08;;;;;;;4.67;3.30;;;;;;;36.18;27.67;100062.08;1647009;84;21839;-69
2022/07/06 09:40:38;;;;;;;4.00;3.22;;;;;;;36.16;27.78;100055.55;1683332;84;21649;-70
2022/07/06 09:43:14;;;;;;;5.40;3.40;;;;;;;36.13;27.48;100055.85;1661831;84;21079;-71
2022/07/06 09:45:45;;;;;;;5.00;3.27;;;;;;;36.11;27.25;100045.78;1660714;86;21026;-70
2022/07/06 09:48:22;;;;;;;5.90;4.25;;;;;;;36.06;27.39;100051.11;1672211;84;21079;-73
2022/07/06 09:50:55;;;;;;;4.53;3.67;;;;;;;36.11;27.45;100051.34;1673915;84;22213;-70
2022/07/06 09:53:24;;;;;;;8.88;3.45;;;;;;;36.19;27.17;100045.55;1657593;85;21084;-70
2022/07/06 09:55:56;;;;;;;5.67;4.00;;;;;;;36.30;27.13;100041.22;1663355;86;21011;-71
2022/07/06 09:58:22;;;;;;;4.45;3.20;;;;;;;36.38;25.92;100043.14;1664268;86;21191;-69
2022/07/06 10:00:49;;;;;;;4.87;3.83;;;;;;;36.40;25.56;100038.70;1661218;85;21123;-70
2022/07/06 10:03:17;;;;;;;5.03;3.85;;;;;;;36.39;26.51;100037.74;1663317;85;22185;-69
2022/07/06 10:05:47;;;;;;;5.12;3.87;;;;;;;36.45;26.11;100035.95;1662567;86;21102;-69
2022/07/06 10:08:14;;;;;;;5.37;3.67;;;;;;;36.53;25.98;100033.77;1647249;86;21011;-68
2022/07/06 10:10:42;;;;;;;4.80;3.85;;;;;;;36.59;26.66;100034.73;1664277;86;20983;-70
2022/07/06 10:13:09;;;;;;;4.37;3.40;;;;;;;36.67;26.46;100026.32;1656498;85;21039;-69
2022/07/06 10:15:39;;;;;;;4.83;3.72;;;;;;;36.77;26.46;100029.97;1638577;86;21548;-70
2022/07/06 10:18:09;;;;;;;4.87;3.95;;;;;;;36.84;25.54;100027.70;1656541;86;21121;-70
2022/07/06 10:20:38;;;;;;;5.40;4.00;;;;;;;36.91;25.05;100027.30;1661646;84;21094;-71
2022/07/06 10:23:08;;;;;;;5.65;3.77;;;;;;;36.94;25.56;100017.43;1657308;85;20999;-69
2022/07/06 10:25:36;;;;;;;4.80;3.65;;;;;;;36.97;25.21;100018.55;1635415;86;21034;-70
2022/07/06 10:28:03;;;;;;;4.70;4.17;;;;;;;37.01;25.23;100019.98;1671431;84;21052;-70
2022/07/06 10:30:30;;;;;;;6.72;3.80;;;;;;;37.07;25.23;100016.02;1663593;86;21137;-69
2022/07/06 10:32:59;;;;;;;5.45;4.12;;;;;;;37.14;25.11;100013.59;1663020;86;21038;-69
2022/07/06 10:35:26;;;;;;;5.65;4.10;;;;;;;37.23;25.14;100013.05;1649157;86;21054;-69
2022/07/06 10:38:09;;;;;;;4.30;3.60;;;;;;;37.28;24.96;100004.70;1660152;84;21694;-69
2022/07/06 10:43:45;;;;;;;5.60;4.03;;;;;;;37.37;24.96;100004.77;1655334;86;21098;-69
2022/07/06 10:46:20;;;;;;;4.95;3.80;;;;;;;37.42;25.07;100000.64;1646008;85;21082;-69
2022/07/06 10:48:47;;;;;;;7.00;4.15;;;;;;;37.37;24.79;99997.81;1659391;86;21050;-68
2022/07/06 10:51:28;;;;;;;5.40;3.87;;;;;;;37.20;24.91;99990.90;1649294;86;21149;-70
2022/07/06 10:53:58;;;;;;;6.05;4.22;;;;;;;37.03;25.12;99989.70;1650575;86;21597;-72
2022/07/06 10:56:47;;;;;;;5.72;4.20;;;;;;;37.01;25.45;99986.58;1666204;84;21283;-69
2022/07/06 10:59:17;;;;;;;5.30;3.70;;;;;;;37.07;25.47;99990.34;1663556;84;21533;-70
2022/07/06 11:02:08;;;;;;;4.60;4.20;;;;;;;37.21;25.09;99974.34;1664961;84;21088;-70
2022/07/06 11:04:35;;;;;;;5.05;4.00;;;;;;;37.31;25.09;99980.91;1651705;84;21539;-69
2022/07/06 11:07:13;;;;;;;5.50;4.05;;;;;;;37.42;25.07;99975.57;1676366;84;21296;-70
2022/07/06 11:09:47;;;;;;;6.25;4.25;;;;;;;37.58;24.73;99966.22;1664584;84;21047;-70
2022/07/06 11:12:22;;;;;;;4.70;4.05;;;;;;;37.72;24.66;99956.70;1664964;84;21035;-69
2022/07/06 11:14:49;;;;;;;5.50;4.65;;;;;;;37.81;24.54;99960.73;1672611;84;21032;-70
2022/07/06 11:17:16;;;;;;;5.92;4.60;;;;;;;37.87;24.38;99947.13;1664418;84;21100;-70
2022/07/06 11:19:58;;;;;;;6.75;4.42;;;;;;;37.93;24.13;99938.36;1659692;86;21161;-70
2022/07/06 11:22:27;;;;;;;6.95;4.70;;;;;;;38.00;24.26;99936.67;1673113;84;21060;-70
2022/07/06 11:24:53;;;;;;;5.17;4.33;;;;;;;38.07;24.38;99934.20;1651862;86;21069;-69
2022/07/06 11:27:22;;;;;;;7.47;4.10;;;;;;;38.14;23.89;99924.77;1663717;86;21047;-70
2022/07/06 11:29:48;;;;;;;6.95;4.55;;;;;;;38.16;23.88;99925.86;1635005;86;21153;-70
2022/07/06 11:32:15;;;;;;;6.67;4.30;;;;;;;38.19;23.85;99917.20;1661835;86;21676;-69
2022/07/06 11:34:44;;;;;;;6.00;4.15;;;;;;;38.24;23.81;99920.78;1652232;86;21058;-71
2022/07/06 11:37:13;;;;;;;6.08;4.05;;;;;;;38.21;23.67;99919.69;1637138;87;21580;-70
2022/07/06 11:39:41;;;;;;;7.00;4.30;;;;;;;38.25;23.44;99920.30;1655307;86;21034;-70